Pagina principală
METAR-TAF:

METAR-TAF

Aeroporturi :

Ambato, Ecuador

Latitudine: 01-12-43S, longitudine: 078-34-28W, elevație: 2591 m

Observații meteo curente

Raportul a fost făcut în urmă cu 16 de minute, la 19:00 UTC
Vânt 5 kt de la Est/Sud-est
Temperatură 20°C
Umiditate 60%
Presiune 1029 hPa
Vizibilitate de 10 km sau mai mult
Nori puțini la o înălțime de 3000 picior
Nori împrăștiați la o înălțime de 10000 picior

METAR: SEAM 261900Z 11005KT 9999 FEW030 SCT100 20/12 Q1029

Ora: 14:16 (19:16 UTC)


TAF: lipsă

Observații și prognoze meteo pentru peste 4.000 de aeroporturi (rapoarte METAR și TAF).

Stațiile disponibile sunt reprezentate pe hartă prin puncte galbene și roșii.

Țineți indicatorul mouse-ului pe punctul dorit pentru a vedea denumirea stației.

Apoi, faceți clic pentru a vedea observațiile și prognozele meteorologice.

Pentru a schimba harta: Pentru mărire, faceți clic pe butoanele verzi cu cruce neagră; pentru micșorare, pe butonul verde cu o liniuță; pentru hărți învecinate, pe săgețile verzi.


METAR-TAF: